Time;durP1;ratioP1;P1;durP2;ratioP2;P2;SDS_P1;SDS_P2;PMS_P1;PMS_P2;Temp;Humidity;BMP_temperature;BMP_pressure;BME280_temperature;BME280_humidity;BME280_pressure;Samples;Min_cycle;Max_cycle;Signal;HPM_P1;HPM_P2
2024/01/25 00:02:42;;;;;;;5.03;2.30;;;;;;;17.48;53.87;97938.81;10367460;28;20026;-39
2024/01/25 00:07:49;;;;;;;7.03;1.93;;;;;;;17.46;53.77;97945.50;10366771;28;20395;-40
2024/01/25 00:12:49;;;;;;;4.43;1.83;;;;;;;17.45;53.49;97938.75;10365893;28;20297;-37
2024/01/25 00:17:50;;;;;;;4.57;1.80;;;;;;;17.44;53.83;97942.97;10366826;28;20445;-35
2024/01/25 00:22:50;;;;;;;5.30;1.70;;;;;;;17.43;53.82;97936.19;10367225;28;20021;-39
2024/01/25 00:27:50;;;;;;;5.47;1.93;;;;;;;17.41;54.04;97937.81;10365111;28;20040;-38
2024/01/25 00:32:51;;;;;;;3.63;1.50;;;;;;;17.42;54.02;97944.56;10366400;28;20113;-34
2024/01/25 00:37:51;;;;;;;5.07;1.50;;;;;;;17.40;53.71;97935.25;10365603;28;20088;-37
2024/01/25 00:42:55;;;;;;;2.97;1.30;;;;;;;17.43;54.06;97935.31;10365672;28;20036;-36
2024/01/25 00:47:56;;;;;;;7.40;2.22;;;;;;;17.45;53.95;97943.81;10366402;28;20033;-38
2024/01/25 00:52:57;;;;;;;3.55;1.35;;;;;;;17.46;54.13;97946.38;10361703;28;20038;-41
2024/01/25 00:57:59;;;;;;;1.75;1.30;;;;;;;17.42;54.02;97942.03;10361570;28;20034;-39
2024/01/25 01:03:04;;;;;;;2.97;1.70;;;;;;;17.43;54.24;97937.84;10365685;28;20108;-39
2024/01/25 01:08:05;;;;;;;2.80;1.25;;;;;;;17.42;54.24;97929.38;10364805;28;20044;-35
2024/01/25 01:13:05;;;;;;;4.50;1.50;;;;;;;17.41;53.90;97936.97;10363748;28;20034;-37
2024/01/25 01:18:06;;;;;;;2.70;1.93;;;;;;;17.41;53.75;97929.38;10365210;28;20044;-38
2024/01/25 01:23:06;;;;;;;2.37;1.30;;;;;;;17.40;54.21;97922.59;10363751;28;20288;-36
2024/01/25 01:28:06;;;;;;;2.33;1.00;;;;;;;17.39;54.07;97928.47;10362844;28;20300;-40
2024/01/25 01:33:09;;;;;;;4.07;1.27;;;;;;;17.40;54.16;97932.72;10364184;28;20052;-38
2024/01/25 01:38:10;;;;;;;3.30;1.33;;;;;;;17.40;54.25;97935.25;10363039;28;20127;-36
2024/01/25 01:43:18;;;;;;;2.38;1.52;;;;;;;17.37;54.66;97923.38;10362554;28;20065;-39
2024/01/25 01:48:18;;;;;;;1.48;1.10;;;;;;;17.39;54.34;97934.38;10363805;28;20034;-37
2024/01/25 01:53:18;;;;;;;2.87;1.40;;;;;;;17.40;54.45;97930.19;10362801;28;20037;-39
2024/01/25 01:58:20;;;;;;;2.73;1.53;;;;;;;17.39;54.47;97943.66;10362951;28;20131;-37
2024/01/25 02:03:21;;;;;;;4.93;1.20;;;;;;;17.40;54.21;97935.25;10363369;28;20108;-37
2024/01/25 02:08:21;;;;;;;2.08;1.10;;;;;;;17.40;54.63;97937.78;10362365;28;20995;-38
2024/01/25 02:13:22;;;;;;;2.73;1.20;;;;;;;17.39;54.32;97931.00;10361908;28;20585;-40
2024/01/25 02:18:22;;;;;;;2.50;1.20;;;;;;;17.38;54.40;97922.56;10362760;28;21095;-39
2024/01/25 02:23:23;;;;;;;3.65;1.40;;;;;;;17.35;54.25;97909.81;10362053;28;21614;-38
2024/01/25 02:28:23;;;;;;;5.90;1.13;;;;;;;17.38;54.33;97909.03;10361552;28;20029;-39
2024/01/25 02:33:23;;;;;;;1.20;1.03;;;;;;;17.35;54.71;97896.28;10362226;28;20068;-36
2024/01/25 02:38:24;;;;;;;2.70;1.47;;;;;;;17.37;54.67;97915.78;10361385;28;21165;-35
2024/01/25 02:56:08;;;;;;;1.95;1.27;;;;;;;17.37;54.63;97897.19;10353685;28;20034;-36
2024/01/25 03:01:09;;;;;;;2.27;1.17;;;;;;;17.35;54.75;97894.63;10361437;28;20038;-34
2024/01/25 03:06:09;;;;;;;2.13;1.30;;;;;;;17.33;55.01;97880.22;10361137;28;20046;-39
2024/01/25 03:11:09;;;;;;;2.33;1.13;;;;;;;17.40;54.40;97882.09;10358917;28;20304;-38
2024/01/25 03:16:10;;;;;;;2.27;1.23;;;;;;;17.36;54.82;97908.16;10361502;28;20033;-36
2024/01/25 03:21:10;;;;;;;5.97;1.80;;;;;;;17.36;54.67;97898.91;10360728;28;20513;-37
2024/01/25 03:26:11;;;;;;;2.85;1.40;;;;;;;17.33;54.63;97895.41;10360795;28;20062;-38
2024/01/25 03:31:12;;;;;;;1.80;0.93;;;;;;;17.37;54.89;97894.66;10361316;28;20054;-37
2024/01/25 03:36:15;;;;;;;2.57;1.20;;;;;;;17.35;54.75;97891.22;10361222;28;20041;-38
2024/01/25 03:41:16;;;;;;;1.10;0.82;;;;;;;17.36;54.84;97892.97;10359872;28;20597;-40
2024/01/25 03:46:16;;;;;;;2.30;1.10;;;;;;;17.36;54.81;97900.56;10360897;28;20042;-35
2024/01/25 03:51:16;;;;;;;1.20;1.03;;;;;;;17.34;54.40;97884.44;10360531;28;20042;-36
2024/01/25 03:56:17;;;;;;;1.20;1.00;;;;;;;17.36;54.63;97892.97;10359727;28;20312;-41
2024/01/25 04:01:17;;;;;;;2.17;1.40;;;;;;;17.34;54.45;97900.47;10360193;28;20045;-38
2024/01/25 04:06:18;;;;;;;1.40;1.10;;;;;;;17.34;54.81;97892.88;10367388;28;20073;-40
2024/01/25 04:11:18;;;;;;;2.90;1.10;;;;;;;17.34;54.72;97904.69;10367361;28;20038;-35
2024/01/25 04:16:18;;;;;;;1.33;0.93;;;;;;;17.33;54.77;97911.41;10367958;28;20463;-38
2024/01/25 04:21:19;;;;;;;2.50;1.63;;;;;;;17.31;54.63;97918.13;10367133;28;20462;-41
2024/01/25 04:26:19;;;;;;;2.97;1.80;;;;;;;17.33;54.72;97921.53;10366935;28;20490;-38
2024/01/25 04:31:19;;;;;;;1.63;1.40;;;;;;;17.35;54.58;97901.34;10367708;28;20521;-35
2024/01/25 04:36:20;;;;;;;3.17;1.20;;;;;;;17.33;54.95;97910.59;10365332;28;20289;-37
2024/01/25 04:41:20;;;;;;;2.43;1.10;;;;;;;17.39;54.60;97915.81;10365192;28;20800;-34
2024/01/25 04:46:20;;;;;;;4.20;1.00;;;;;;;17.39;54.47;97924.25;10359509;28;20430;-38
2024/01/25 04:51:22;;;;;;;2.57;1.23;;;;;;;17.38;54.48;97931.81;10366625;28;20034;-34
2024/01/25 04:56:22;;;;;;;1.55;0.70;;;;;;;17.39;54.34;97948.72;10360598;28;20498;-39
2024/01/25 05:01:23;;;;;;;1.53;1.43;;;;;;;17.41;54.04;97947.09;10363029;28;20041;-34
2024/01/25 05:06:24;;;;;;;2.15;1.10;;;;;;;17.35;54.51;97947.78;10363704;28;20429;-35
2024/01/25 05:11:24;;;;;;;1.50;1.00;;;;;;;17.40;54.51;97975.75;10363199;28;20045;-37
2024/01/25 05:16:24;;;;;;;3.13;1.37;;;;;;;17.44;54.55;97972.47;10365571;28;20334;-35
2024/01/25 05:21:25;;;;;;;2.13;1.17;;;;;;;17.38;54.55;97975.72;10379623;28;20551;-41
2024/01/25 05:26:25;;;;;;;1.58;1.10;;;;;;;17.41;54.45;97980.00;10363669;28;20490;-36
2024/01/25 05:31:26;;;;;;;5.38;1.20;;;;;;;17.43;54.47;97991.03;10363327;28;20045;-38
2024/01/25 05:36:26;;;;;;;3.27;1.10;;;;;;;17.33;54.36;97989.91;10363988;28;20564;-38
2024/01/25 05:41:26;;;;;;;1.65;0.90;;;;;;;17.41;54.29;98007.84;10363337;28;20461;-36
2024/01/25 05:46:27;;;;;;;2.58;1.20;;;;;;;17.42;54.24;98010.41;10363815;28;20046;-39
2024/01/25 05:51:28;;;;;;;3.30;0.73;;;;;;;17.40;54.37;98013.75;10363742;28;20034;-37
2024/01/25 05:56:28;;;;;;;6.60;0.87;;;;;;;17.43;53.63;98011.28;10362700;28;20041;-35
2024/01/25 06:01:28;;;;;;;1.93;0.90;;;;;;;17.38;54.44;98002.69;10362204;28;20030;-39
2024/01/25 06:06:29;;;;;;;2.08;1.00;;;;;;;17.42;55.08;98010.41;10361455;28;20037;-36
2024/01/25 06:11:29;;;;;;;4.73;1.00;;;;;;;17.41;55.02;98012.91;10354514;28;20058;-42
2024/01/25 06:16:30;;;;;;;5.20;1.40;;;;;;;17.43;54.63;98006.22;10363550;28;20732;-37
2024/01/25 06:21:30;;;;;;;6.57;1.00;;;;;;;17.41;54.33;98002.78;10362810;28;20029;-35
2024/01/25 06:26:30;;;;;;;5.00;1.00;;;;;;;17.47;54.26;98007.97;10360526;28;20746;-38
2024/01/25 06:31:31;;;;;;;3.55;1.00;;;;;;;17.39;55.35;98004.41;10362608;28;20797;-38
2024/01/25 06:36:32;;;;;;;5.18;1.10;;;;;;;17.51;52.75;98009.78;10361792;28;20080;-37
2024/01/25 06:41:33;;;;;;;6.93;1.03;;;;;;;17.64;51.67;98012.66;10362262;28;20042;-38
2024/01/25 06:46:33;;;;;;;6.25;1.08;;;;;;;17.68;50.92;97994.16;10362373;28;20038;-38
2024/01/25 06:51:33;;;;;;;1.07;0.93;;;;;;;17.71;49.87;98004.38;10376533;28;20533;-39
2024/01/25 06:56:34;;;;;;;2.20;0.90;;;;;;;17.74;49.62;98012.03;10360752;28;20307;-36
2024/01/25 07:01:35;;;;;;;1.80;0.93;;;;;;;17.73;49.52;98009.47;10362159;28;20638;-36
2024/01/25 07:06:35;;;;;;;2.27;0.67;;;;;;;17.74;49.49;98008.66;10361503;28;20034;-36
2024/01/25 07:11:35;;;;;;;2.73;0.73;;;;;;;17.75;49.29;98007.84;10360917;28;20293;-39
2024/01/25 07:16:36;;;;;;;1.07;0.70;;;;;;;17.75;49.08;98015.44;10361319;28;20052;-39
2024/01/25 07:21:36;;;;;;;1.10;0.90;;;;;;;17.74;48.67;98006.13;10360549;28;20041;-37
2024/01/25 07:26:37;;;;;;;3.53;0.60;;;;;;;17.75;48.81;98007.84;10360614;28;20041;-38
2024/01/25 07:31:37;;;;;;;3.90;0.88;;;;;;;17.76;48.64;98002.78;10361672;28;20056;-40
2024/01/25 07:36:38;;;;;;;3.23;0.90;;;;;;;17.79;50.03;97997.81;10360422;28;20037;-35
2024/01/25 07:41:38;;;;;;;1.92;0.80;;;;;;;17.76;49.85;97999.41;10360404;28;20793;-37
2024/01/25 07:46:39;;;;;;;0.93;0.60;;;;;;;17.73;49.37;98006.94;10369311;28;20034;-38
2024/01/25 07:51:39;;;;;;;3.73;0.83;;;;;;;17.70;49.75;98007.72;10367873;28;20455;-34
2024/01/25 07:56:39;;;;;;;2.97;0.77;;;;;;;17.70;49.39;98001.78;10367654;28;20100;-35
2024/01/25 08:01:40;;;;;;;1.45;0.60;;;;;;;17.70;49.73;98001.78;10368739;28;20045;-40
2024/01/25 08:06:40;;;;;;;0.93;0.70;;;;;;;17.72;49.93;98000.16;10367329;28;20124;-35
2024/01/25 08:11:41;;;;;;;3.57;0.87;;;;;;;17.71;50.66;98000.97;10367293;28;20826;-39
2024/01/25 08:16:42;;;;;;;3.65;0.90;;;;;;;17.72;50.12;97995.06;10367580;28;20046;-37
2024/01/25 08:21:42;;;;;;;8.73;1.03;;;;;;;17.75;51.37;97995.16;10366908;28;20474;-36
2024/01/25 08:26:43;;;;;;;2.83;1.17;;;;;;;17.73;50.50;97996.81;10365570;28;20510;-38
2024/01/25 08:31:43;;;;;;;4.30;0.90;;;;;;;17.69;50.14;97995.03;10368284;28;20372;-38
2024/01/25 08:36:43;;;;;;;3.97;1.30;;;;;;;17.67;50.61;98000.03;10367434;28;20064;-37
2024/01/25 08:41:46;;;;;;;4.45;1.00;;;;;;;17.73;51.58;98009.47;10365912;28;20030;-42
2024/01/25 08:46:47;;;;;;;4.00;0.90;;;;;;;17.73;50.36;98012.84;10366374;28;20041;-36
2024/01/25 08:51:47;;;;;;;10.43;1.10;;;;;;;17.76;51.32;98015.44;10366130;28;20485;-35
2024/01/25 08:56:47;;;;;;;5.60;1.03;;;;;;;17.76;50.81;98019.69;10364601;28;20037;-37
2024/01/25 09:01:48;;;;;;;3.60;1.13;;;;;;;17.75;50.79;98020.50;10366131;28;20033;-37
2024/01/25 09:06:48;;;;;;;5.33;1.30;;;;;;;17.74;52.37;98026.38;10365375;28;20025;-36
2024/01/25 09:11:49;;;;;;;2.20;0.80;;;;;;;17.69;50.62;98021.22;10364639;28;20049;-36
2024/01/25 09:16:49;;;;;;;3.70;1.10;;;;;;;17.68;50.79;98014.41;10365887;28;20453;-36
2024/01/25 09:21:49;;;;;;;3.47;1.17;;;;;;;17.67;50.87;98011.88;10364922;28;20045;-39
2024/01/25 09:26:50;;;;;;;2.90;1.23;;;;;;;17.69;50.85;98020.34;10365058;28;20033;-37
2024/01/25 09:31:50;;;;;;;4.20;1.13;;;;;;;17.67;51.23;98016.94;10365326;28;20118;-38
2024/01/25 09:36:51;;;;;;;5.30;1.20;;;;;;;17.70;50.99;98012.78;10364854;28;20034;-39
2024/01/25 09:41:51;;;;;;;10.77;1.75;;;;;;;17.70;51.07;98019.53;10364222;28;20319;-39
2024/01/25 09:46:51;;;;;;;1.90;1.03;;;;;;;17.68;51.26;98023.72;10365037;28;20068;-40
2024/01/25 09:51:53;;;;;;;4.97;1.13;;;;;;;17.70;50.73;98037.25;10362948;28;20410;-37
2024/01/25 09:56:54;;;;;;;2.15;0.98;;;;;;;17.66;50.85;98030.41;10363560;28;20291;-37
2024/01/25 10:01:54;;;;;;;1.52;0.90;;;;;;;17.75;50.65;98039.06;10363251;28;20091;-41
2024/01/25 10:06:56;;;;;;;2.25;1.23;;;;;;;17.76;50.76;98032.34;10363115;28;20037;-37
2024/01/25 10:11:57;;;;;;;8.75;1.35;;;;;;;17.77;51.82;98034.91;10362329;28;20472;-40
2024/01/25 10:17:00;;;;;;;2.23;1.17;;;;;;;17.77;50.38;98039.13;10364063;28;20030;-39
2024/01/25 10:22:01;;;;;;;7.68;1.95;;;;;;;17.74;51.76;98037.34;10361807;28;20025;-37
2024/01/25 10:27:03;;;;;;;9.05;1.83;;;;;;;17.72;51.82;98035.59;10361996;28;20034;-39
2024/01/25 10:32:04;;;;;;;4.68;1.20;;;;;;;17.71;50.88;98033.91;10362868;28;20121;-38
2024/01/25 10:37:06;;;;;;;8.23;1.58;;;;;;;17.71;52.42;98023.75;10361813;28;20040;-38
2024/01/25 10:42:09;;;;;;;5.65;1.38;;;;;;;17.72;51.61;98022.94;10361111;28;20061;-37
2024/01/25 10:47:09;;;;;;;8.05;1.55;;;;;;;17.77;53.11;98004.53;10362597;28;20037;-36
2024/01/25 10:52:10;;;;;;;3.65;1.38;;;;;;;17.80;53.00;98004.59;10361396;28;20685;-38
2024/01/25 10:57:10;;;;;;;5.18;1.13;;;;;;;17.82;52.64;98004.63;10361492;28;20038;-38
2024/01/25 11:02:11;;;;;;;3.90;1.23;;;;;;;17.82;51.96;97990.25;10362236;28;20022;-40
2024/01/25 11:07:11;;;;;;;9.10;1.90;;;;;;;17.82;52.26;97994.50;10361278;28;20338;-40
2024/01/25 11:12:13;;;;;;;3.95;1.30;;;;;;;17.84;51.34;97980.19;10360561;28;20517;-39
2024/01/25 11:17:20;;;;;;;6.28;1.65;;;;;;;17.82;51.40;97981.81;10362219;28;20040;-41
2024/01/25 11:22:21;;;;;;;7.95;1.48;;;;;;;17.84;52.04;97967.50;10360022;28;20022;-39
2024/01/25 11:27:21;;;;;;;4.50;1.90;;;;;;;17.86;53.02;97976.00;10360878;28;20049;-35
2024/01/25 11:32:22;;;;;;;5.43;1.55;;;;;;;17.89;52.44;97963.38;10360849;28;20776;-37
2024/01/25 11:37:22;;;;;;;5.95;1.42;;;;;;;17.87;52.72;97954.91;10361296;28;20457;-36
2024/01/25 11:42:22;;;;;;;5.30;1.60;;;;;;;17.92;54.14;97949.09;10360610;28;20030;-35
2024/01/25 11:47:23;;;;;;;2.77;1.30;;;;;;;17.94;53.94;97949.16;10361144;28;20036;-39
2024/01/25 11:52:23;;;;;;;5.57;2.60;;;;;;;17.94;53.61;97944.06;10360145;28;20034;-36
2024/01/25 11:57:24;;;;;;;2.40;1.33;;;;;;;17.92;53.59;97938.13;10359898;28;20091;-36
2024/01/25 12:02:25;;;;;;;4.88;1.63;;;;;;;17.93;53.30;97932.25;10360894;28;20041;-36
2024/01/25 12:07:25;;;;;;;5.30;1.88;;;;;;;17.93;52.76;97929.69;10359748;28;20387;-38
2024/01/25 12:12:27;;;;;;;5.03;1.30;;;;;;;17.94;52.29;97927.22;10359373;28;20033;-35
2024/01/25 12:17:33;;;;;;;4.30;1.20;;;;;;;17.71;54.21;97909.78;10360821;28;20408;-36
2024/01/25 12:22:33;;;;;;;3.70;1.38;;;;;;;17.81;52.11;97914.22;10357740;28;20034;-37
2024/01/25 12:27:33;;;;;;;5.70;1.63;;;;;;;17.83;53.24;97908.38;10366599;28;20038;-40
2024/01/25 12:32:34;;;;;;;5.50;1.27;;;;;;;17.83;51.42;97897.41;10367280;28;20029;-39
2024/01/25 12:37:35;;;;;;;3.03;1.00;;;;;;;17.71;53.81;97889.53;10366894;28;20312;-36
2024/01/25 12:42:35;;;;;;;6.45;1.23;;;;;;;17.67;52.12;97891.13;10365607;28;20406;-38
2024/01/25 12:47:36;;;;;;;2.28;1.10;;;;;;;17.74;51.83;97882.00;10367038;28;20456;-38
2024/01/25 12:52:36;;;;;;;9.97;1.00;;;;;;;17.79;51.79;97870.28;10365478;28;20026;-39
2024/01/25 12:57:36;;;;;;;2.13;0.70;;;;;;;17.84;51.25;97868.72;10365716;28;20057;-39
2024/01/25 13:02:37;;;;;;;6.30;1.30;;;;;;;17.84;51.25;97853.50;10366572;28;20026;-37
2024/01/25 13:07:37;;;;;;;3.07;0.80;;;;;;;17.84;51.12;97851.81;10365924;28;20119;-36
2024/01/25 13:12:38;;;;;;;2.40;0.97;;;;;;;17.86;50.92;97841.72;10364340;28;20038;-42
2024/01/25 13:17:39;;;;;;;2.53;1.58;;;;;;;17.81;50.73;97835.69;10366188;28;20034;-41
2024/01/25 13:22:39;;;;;;;1.63;0.90;;;;;;;17.85;50.69;97837.47;10363156;28;20490;-37
2024/01/25 13:27:39;;;;;;;2.23;1.10;;;;;;;17.84;50.34;97839.16;10365064;28;20305;-36
2024/01/25 13:32:40;;;;;;;2.93;1.07;;;;;;;17.81;50.38;97831.50;10365383;28;20272;-37
2024/01/25 13:37:40;;;;;;;2.10;0.80;;;;;;;17.81;50.48;97823.03;10364032;28;20036;-37
2024/01/25 13:42:40;;;;;;;3.03;1.17;;;;;;;17.82;50.34;97829.84;10363746;28;20292;-37
2024/01/25 13:47:41;;;;;;;2.17;0.70;;;;;;;17.80;50.06;97821.31;10364791;28;20042;-39
2024/01/25 13:52:41;;;;;;;2.63;0.90;;;;;;;17.81;50.56;97828.09;10363689;28;20048;-38
2024/01/25 13:57:41;;;;;;;0.77;0.60;;;;;;;17.79;50.98;97823.03;10363804;28;20038;-40
2024/01/25 14:02:45;;;;;;;2.20;0.87;;;;;;;17.80;50.79;97821.31;10363606;28;20034;-38
2024/01/25 14:07:46;;;;;;;2.20;0.82;;;;;;;17.77;52.04;97831.41;10363450;28;20449;-37
2024/01/25 14:12:47;;;;;;;0.63;0.60;;;;;;;17.76;54.31;97814.50;10362227;28;20038;-39
2024/01/25 14:17:47;;;;;;;2.45;0.93;;;;;;;17.75;54.62;97816.16;10363833;28;20375;-35
2024/01/25 14:22:48;;;;;;;1.40;0.70;;;;;;;17.78;54.88;97808.66;10362400;28;20390;-35
2024/01/25 14:27:49;;;;;;;1.58;0.90;;;;;;;17.80;54.36;97806.13;10362044;28;20108;-36
2024/01/25 14:32:49;;;;;;;1.05;0.80;;;;;;;17.81;53.34;97800.22;10362968;28;20034;-35
2024/01/25 14:37:50;;;;;;;2.70;1.27;;;;;;;17.82;52.89;97796.91;10362437;28;20034;-37
2024/01/25 14:42:50;;;;;;;1.63;1.10;;;;;;;17.83;52.46;97791.84;10362085;28;20041;-36
2024/01/25 14:47:50;;;;;;;1.27;0.60;;;;;;;17.86;52.63;97788.53;10362619;28;20426;-37
2024/01/25 14:52:51;;;;;;;1.53;0.90;;;;;;;17.87;52.32;97786.03;10361004;28;20030;-37
2024/01/25 14:57:51;;;;;;;0.53;0.47;;;;;;;17.89;51.85;97783.50;10361954;28;20030;-38
2024/01/25 15:02:51;;;;;;;2.40;1.13;;;;;;;17.90;51.86;97777.63;10362020;28;20026;-36
2024/01/25 15:07:52;;;;;;;1.13;0.70;;;;;;;17.90;51.67;97770.88;10361367;28;20052;-37
2024/01/25 15:12:53;;;;;;;2.07;0.73;;;;;;;17.88;51.88;97770.00;10361071;28;20549;-36
2024/01/25 15:17:54;;;;;;;1.67;0.95;;;;;;;17.88;52.33;97769.13;10361930;28;20080;-38
2024/01/25 15:23:00;;;;;;;0.93;0.70;;;;;;;17.88;51.96;97771.66;10360652;28;20042;-40
2024/01/25 15:28:03;;;;;;;1.75;0.70;;;;;;;17.85;52.35;97769.94;10361076;28;20120;-36
2024/01/25 15:33:05;;;;;;;1.05;0.95;;;;;;;17.84;53.19;97753.00;10361903;28;20061;-36
2024/01/25 15:38:07;;;;;;;2.53;0.88;;;;;;;17.81;53.47;97747.91;10360741;28;20034;-35
2024/01/25 15:43:07;;;;;;;1.73;0.65;;;;;;;17.82;54.44;97753.84;10360174;28;20686;-37
2024/01/25 15:48:08;;;;;;;0.60;0.50;;;;;;;17.84;52.42;97752.19;10361589;28;20044;-37
2024/01/25 15:53:08;;;;;;;0.97;0.60;;;;;;;17.84;52.84;97747.94;10360283;28;20037;-36
2024/01/25 15:58:08;;;;;;;0.60;0.40;;;;;;;17.83;53.80;97738.66;10361168;28;20292;-35
2024/01/25 16:03:09;;;;;;;1.00;0.60;;;;;;;17.80;55.74;97745.31;10368484;28;20088;-35
2024/01/25 16:08:09;;;;;;;1.65;0.60;;;;;;;17.70;55.08;97725.72;10368280;28;20041;-35
2024/01/25 16:13:09;;;;;;;1.40;0.80;;;;;;;17.81;54.11;97752.09;10367751;28;20560;-35
2024/01/25 16:18:11;;;;;;;1.17;0.60;;;;;;;17.85;52.88;97754.75;10367447;28;20120;-40
2024/01/25 16:23:13;;;;;;;1.23;0.80;;;;;;;17.87;52.65;97759.81;10366135;28;20029;-37
2024/01/25 16:28:13;;;;;;;1.40;0.73;;;;;;;17.84;51.98;97752.19;10363388;28;20046;-41
2024/01/25 16:33:14;;;;;;;1.40;0.80;;;;;;;17.84;52.62;97753.00;10316124;28;20041;-39
2024/01/25 16:38:15;;;;;;;1.75;0.70;;;;;;;17.88;52.73;97759.00;10331720;28;20041;-39
2024/01/25 16:43:15;;;;;;;2.33;0.93;;;;;;;17.87;53.00;97757.28;10347989;28;20042;-40
2024/01/25 16:48:15;;;;;;;1.93;1.00;;;;;;;17.91;51.55;97756.53;10363061;28;20405;-38
2024/01/25 16:53:16;;;;;;;2.42;0.90;;;;;;;17.92;51.08;97770.91;10365602;28;20343;-39
2024/01/25 16:58:19;;;;;;;1.57;1.00;;;;;;;17.88;50.83;97759.00;10362477;28;20041;-36
2024/01/25 17:03:19;;;;;;;0.93;0.80;;;;;;;17.90;50.69;97770.03;10366168;28;20038;-39
2024/01/25 17:08:19;;;;;;;1.50;0.98;;;;;;;17.87;50.83;97772.50;10365332;28;20042;-35
2024/01/25 17:13:20;;;;;;;3.43;1.20;;;;;;;17.86;50.70;97775.84;10361910;28;20041;-35
2024/01/25 17:18:20;;;;;;;1.60;1.00;;;;;;;17.87;50.89;97772.50;10366038;28;20045;-35
2024/01/25 17:23:20;;;;;;;2.00;1.07;;;;;;;17.86;50.71;97765.72;10364528;28;20026;-36
2024/01/25 17:28:21;;;;;;;3.17;1.83;;;;;;;17.86;50.53;97770.78;10364827;28;20271;-39
2024/01/25 17:33:21;;;;;;;5.17;1.90;;;;;;;17.85;51.09;97774.16;10363889;28;20305;-40
2024/01/25 17:38:21;;;;;;;5.80;2.37;;;;;;;17.85;50.81;97758.94;10365025;28;20716;-41
2024/01/25 17:43:22;;;;;;;6.73;2.67;;;;;;;17.86;50.50;97769.13;10363027;28;20030;-39
2024/01/25 17:48:22;;;;;;;7.33;3.73;;;;;;;17.89;51.00;97775.91;10363841;28;20045;-38
2024/01/25 17:53:22;;;;;;;13.17;5.80;;;;;;;17.89;51.56;97774.22;10343362;28;20156;-43
2024/01/25 17:58:23;;;;;;;18.38;8.60;;;;;;;17.88;51.99;97764.94;10305111;28;20939;-40
2024/01/25 18:03:23;;;;;;;17.07;7.80;;;;;;;17.89;51.30;97770.84;10306940;28;20117;-41
2024/01/25 18:08:24;;;;;;;22.47;9.90;;;;;;;17.89;52.36;97760.69;10352052;28;20071;-37
2024/01/25 18:13:24;;;;;;;25.63;12.03;;;;;;;17.89;55.15;97755.63;10356870;28;20917;-40
2024/01/25 18:18:24;;;;;;;28.87;14.43;;;;;;;17.87;55.54;97757.28;10362172;28;20556;-36
2024/01/25 18:23:25;;;;;;;29.25;14.77;;;;;;;17.85;55.70;97753.88;10362336;28;20288;-39
2024/01/25 18:28:25;;;;;;;24.13;11.20;;;;;;;17.85;55.11;97769.94;10362683;28;20057;-39
2024/01/25 18:33:26;;;;;;;22.30;11.57;;;;;;;17.85;54.11;97772.47;10362274;28;20292;-41
2024/01/25 18:38:27;;;;;;;17.80;9.65;;;;;;;17.88;52.75;97771.66;10362908;28;20132;-38
2024/01/25 18:43:27;;;;;;;18.80;10.02;;;;;;;17.86;53.68;97771.66;10358621;28;20022;-40
2024/01/25 18:48:28;;;;;;;20.23;10.40;;;;;;;17.83;53.57;97771.56;10357965;28;20493;-36
2024/01/25 18:53:30;;;;;;;19.03;11.23;;;;;;;17.84;55.13;97787.66;10362348;28;20044;-37
2024/01/25 18:58:32;;;;;;;25.75;11.10;;;;;;;17.84;54.26;97795.25;10353832;28;20061;-38
2024/01/25 19:03:33;;;;;;;26.80;11.85;;;;;;;17.81;56.03;97783.38;10357471;28;20049;-37
2024/01/25 19:08:33;;;;;;;18.38;10.73;;;;;;;17.77;55.58;97773.16;10355433;28;20581;-37
2024/01/25 19:13:34;;;;;;;18.40;9.82;;;;;;;17.75;55.19;97773.09;10357027;28;20087;-41
2024/01/25 19:18:34;;;;;;;16.90;9.47;;;;;;;17.76;55.97;97784.09;10372888;28;20044;-39
2024/01/25 19:23:38;;;;;;;21.53;11.23;;;;;;;17.77;55.26;97778.22;10351006;28;20573;-38
2024/01/25 19:28:38;;;;;;;20.45;10.50;;;;;;;17.75;55.23;97775.63;10356501;28;20025;-38
2024/01/25 19:33:39;;;;;;;25.38;10.23;;;;;;;17.76;55.20;97771.44;10358896;28;20029;-42
2024/01/25 19:38:40;;;;;;;21.30;9.73;;;;;;;17.76;55.69;97763.84;10361780;28;20104;-41
2024/01/25 19:43:42;;;;;;;19.90;9.70;;;;;;;17.75;55.09;97773.09;10361632;28;20060;-41
2024/01/25 19:48:43;;;;;;;17.55;8.32;;;;;;;17.75;55.02;97775.63;10363112;28;20029;-37
2024/01/25 19:53:43;;;;;;;16.30;9.27;;;;;;;17.75;55.70;97772.28;10362483;28;20033;-36
2024/01/25 19:58:45;;;;;;;16.23;8.73;;;;;;;17.74;55.53;97778.16;10364488;28;20084;-36
2024/01/25 20:03:45;;;;;;;16.80;9.20;;;;;;;17.74;55.83;97766.34;10363294;28;20281;-36
2024/01/25 20:08:46;;;;;;;18.27;8.88;;;;;;;17.74;56.39;97750.31;10364375;28;20037;-38
2024/01/25 20:13:47;;;;;;;13.23;8.35;;;;;;;17.74;56.30;97745.22;10363292;28;20504;-41
2024/01/25 20:18:47;;;;;;;17.45;7.93;;;;;;;17.74;55.54;97737.63;10364914;28;20038;-37
2024/01/25 20:23:48;;;;;;;12.43;8.23;;;;;;;17.75;55.86;97767.19;10362843;28;20037;-38
2024/01/25 20:28:48;;;;;;;14.93;8.57;;;;;;;17.72;56.07;97775.59;10362795;28;20293;-40
2024/01/25 20:33:50;;;;;;;15.80;8.38;;;;;;;17.73;56.59;97784.06;10363712;28;20968;-36
2024/01/25 20:38:50;;;;;;;13.35;8.18;;;;;;;17.72;56.27;97800.91;10362696;28;20038;-41
2024/01/25 20:43:51;;;;;;;16.83;8.33;;;;;;;17.71;56.75;97796.69;10362182;28;20556;-40
2024/01/25 20:48:51;;;;;;;16.80;6.93;;;;;;;17.71;56.72;97795.81;10363484;28;20053;-38
2024/01/25 20:53:52;;;;;;;10.03;6.97;;;;;;;17.73;56.63;97781.53;10361618;28;20127;-36
2024/01/25 20:58:53;;;;;;;14.32;8.15;;;;;;;17.73;56.51;97784.06;10362116;28;20292;-41
2024/01/25 21:03:54;;;;;;;13.97;8.00;;;;;;;17.73;56.37;97772.22;10366208;28;20029;-39
2024/01/25 21:08:55;;;;;;;9.25;5.43;;;;;;;17.75;56.58;97769.75;10365631;28;20299;-38
2024/01/25 21:13:55;;;;;;;12.52;7.10;;;;;;;17.72;58.02;97773.06;10364249;28;20075;-40
2024/01/25 21:18:56;;;;;;;12.95;6.88;;;;;;;17.71;57.96;97766.28;10361194;28;20033;-41
2024/01/25 21:23:56;;;;;;;9.60;6.13;;;;;;;17.70;57.93;97763.72;10362260;28;20037;-39
2024/01/25 21:28:56;;;;;;;12.90;6.30;;;;;;;17.71;57.54;97765.41;10363242;28;20037;-39
2024/01/25 21:33:57;;;;;;;12.13;5.90;;;;;;;17.71;57.29;97760.34;10364911;28;20033;-36
2024/01/25 21:38:57;;;;;;;11.10;5.93;;;;;;;17.70;56.93;97764.59;10363833;28;20064;-40
2024/01/25 21:43:57;;;;;;;9.20;6.30;;;;;;;17.70;56.84;97763.72;10363846;28;20033;-38
2024/01/25 21:48:58;;;;;;;7.70;4.93;;;;;;;17.68;56.86;97762.84;10364290;28;20518;-38
2024/01/25 21:53:59;;;;;;;11.53;6.17;;;;;;;17.66;56.99;97762.78;10364275;28;20034;-41
2024/01/25 21:58:59;;;;;;;10.40;5.80;;;;;;;17.65;56.96;97771.22;10363585;28;20040;-40
2024/01/25 22:04:00;;;;;;;9.52;6.45;;;;;;;17.65;56.94;97766.16;10363366;28;20034;-37
2024/01/25 22:09:00;;;;;;;10.47;4.73;;;;;;;17.66;57.34;97761.97;10364413;28;20107;-41
2024/01/25 22:14:00;;;;;;;11.57;6.13;;;;;;;17.65;57.36;97760.25;10362727;28;20300;-36
2024/01/25 22:19:01;;;;;;;7.67;5.20;;;;;;;17.64;57.14;97761.06;10363706;28;20041;-38
2024/01/25 22:24:01;;;;;;;7.83;5.13;;;;;;;17.63;57.58;97764.41;10362603;28;20513;-36
2024/01/25 22:29:02;;;;;;;8.40;5.05;;;;;;;17.63;57.47;97756.81;10362146;28;20042;-38
2024/01/25 22:34:02;;;;;;;8.85;4.82;;;;;;;17.63;57.55;97746.69;10362846;28;20121;-35
2024/01/25 22:39:03;;;;;;;9.70;4.63;;;;;;;17.63;57.97;97744.16;10362115;28;20044;-36
2024/01/25 22:44:04;;;;;;;8.55;4.47;;;;;;;17.64;58.09;97750.94;10361682;28;20393;-41
2024/01/25 22:49:04;;;;;;;9.63;4.82;;;;;;;17.65;58.03;97750.13;10362243;28;20045;-38
2024/01/25 22:54:04;;;;;;;11.80;5.70;;;;;;;17.64;57.81;97743.31;10362047;28;20401;-40
2024/01/25 22:59:05;;;;;;;10.67;5.40;;;;;;;17.64;58.30;97753.47;10361419;28;20288;-37
2024/01/25 23:04:06;;;;;;;11.97;5.10;;;;;;;17.62;58.26;97755.97;10360714;28;20022;-37
2024/01/25 23:09:06;;;;;;;6.40;4.55;;;;;;;17.63;57.92;97756.81;10361810;28;20573;-39
2024/01/25 23:14:07;;;;;;;10.97;4.60;;;;;;;17.65;57.92;97771.22;10361100;28;20034;-39
2024/01/25 23:19:07;;;;;;;8.52;4.72;;;;;;;17.61;58.02;97763.53;10361533;28;20087;-40
2024/01/25 23:24:07;;;;;;;7.17;4.87;;;;;;;17.58;57.38;97769.38;10360242;28;20029;-39
2024/01/25 23:29:08;;;;;;;8.63;4.33;;;;;;;17.63;57.58;97772.88;10360286;28;20095;-41